NWS228 URMM-URMG
Flight info
| Callsign | NWS228 |
|---|---|
| Flight time | 0h 33m |
| Altitude | 25000 |
| Route | URIL5M URILU R227 RISKA B494 NEGUB NEGU1R |
| Aircraft | B738/M-SDE1FGHIJ1RWXYZ/LB1 |
Departure
| Time | 2026-05-07 11:14 |
|---|---|
| Airport | Mineralnye Vody Airport (URMM) |
Arrival
| Time | 2026-05-07 11:48 |
|---|---|
| Airport | Akhmat Kadyrov Grozny International Airport (URMG) |
| Time | Latitude | Longitude | Altitude | Speed | Heading |
|---|---|---|---|---|---|
| 2026-05-07 10:37 | 44.21760 | 43.08999 | 1050 ft | 0 kts | 212° |
| 2026-05-07 10:45 | 44.21760 | 43.09000 | 1050 ft | 0 kts | 212° |
| 2026-05-07 11:06 | 44.21762 | 43.09001 | 1050 ft | 3 kts | 212° |
| 2026-05-07 11:06 | 44.21784 | 43.09021 | 1051 ft | 4 kts | 211° |
| 2026-05-07 11:06 | 44.21807 | 43.09039 | 1051 ft | 3 kts | 207° |
| 2026-05-07 11:06 | 44.21822 | 43.09048 | 1051 ft | 2 kts | 188° |
| 2026-05-07 11:07 | 44.21833 | 43.09046 | 1052 ft | 2 kts | 138° |
| 2026-05-07 11:07 | 44.21841 | 43.09035 | 1052 ft | 2 kts | 123° |
| 2026-05-07 11:07 | 44.21843 | 43.09030 | 1052 ft | 0 kts | 123° |
| 2026-05-07 11:10 | 44.21834 | 43.09046 | 1077 ft | 5 kts | 128° |
| 2026-05-07 11:10 | 44.21807 | 43.09095 | 1050 ft | 7 kts | 124° |
| 2026-05-07 11:10 | 44.21768 | 43.09181 | 1050 ft | 14 kts | 122° |
| 2026-05-07 11:10 | 44.21708 | 43.09303 | 1050 ft | 16 kts | 134° |
| 2026-05-07 11:11 | 44.21642 | 43.09419 | 1051 ft | 15 kts | 123° |
| 2026-05-07 11:11 | 44.21588 | 43.09539 | 1052 ft | 14 kts | 121° |
| 2026-05-07 11:11 | 44.21536 | 43.09655 | 1050 ft | 14 kts | 122° |
| 2026-05-07 11:11 | 44.21514 | 43.09778 | 1050 ft | 13 kts | 82° |
| 2026-05-07 11:12 | 44.21533 | 43.09898 | 1050 ft | 13 kts | 76° |
| 2026-05-07 11:12 | 44.21553 | 43.10015 | 1050 ft | 12 kts | 78° |
| 2026-05-07 11:12 | 44.21572 | 43.10129 | 1050 ft | 12 kts | 77° |
| 2026-05-07 11:12 | 44.21612 | 43.10226 | 1051 ft | 12 kts | 38° |
| 2026-05-07 11:13 | 44.21679 | 43.10287 | 1049 ft | 11 kts | 32° |
| 2026-05-07 11:13 | 44.21747 | 43.10323 | 1051 ft | 10 kts | 346° |
| 2026-05-07 11:13 | 44.21777 | 43.10285 | 1052 ft | 0 kts | 305° |
| 2026-05-07 11:14 | 44.21848 | 43.10135 | 1051 ft | 52 kts | 303° |
| 2026-05-07 11:14 | 44.22171 | 43.09418 | 1054 ft | 120 kts | 302° |
| 2026-05-07 11:14 | 44.22716 | 43.08209 | 1140 ft | 166 kts | 302° |
| 2026-05-07 11:14 | 44.23338 | 43.06841 | 1944 ft | 165 kts | 302° |
| 2026-05-07 11:15 | 44.23965 | 43.05442 | 2749 ft | 182 kts | 303° |
| 2026-05-07 11:15 | 44.24682 | 43.03844 | 3066 ft | 210 kts | 303° |
| 2026-05-07 11:15 | 44.25501 | 43.02026 | 3504 ft | 227 kts | 304° |
| 2026-05-07 11:15 | 44.26365 | 43.00121 | 4159 ft | 238 kts | 303° |
| 2026-05-07 11:16 | 44.27276 | 42.98102 | 4904 ft | 249 kts | 303° |
| 2026-05-07 11:16 | 44.28211 | 42.96040 | 5782 ft | 253 kts | 303° |
| 2026-05-07 11:16 | 44.29160 | 42.93946 | 6711 ft | 256 kts | 302° |
| 2026-05-07 11:16 | 44.30241 | 42.91957 | 7521 ft | 260 kts | 319° |
| 2026-05-07 11:17 | 44.31868 | 42.90689 | 7913 ft | 283 kts | 343° |
| 2026-05-07 11:17 | 44.33890 | 42.90511 | 8157 ft | 312 kts | 8° |
| 2026-05-07 11:17 | 44.35983 | 42.91618 | 8676 ft | 330 kts | 31° |
| 2026-05-07 11:17 | 44.37685 | 42.93851 | 9468 ft | 339 kts | 53° |
| 2026-05-07 11:18 | 44.38637 | 42.96833 | 10330 ft | 346 kts | 77° |
| 2026-05-07 11:18 | 44.38601 | 43.00214 | 11103 ft | 353 kts | 103° |
| 2026-05-07 11:18 | 44.37586 | 43.03352 | 11926 ft | 357 kts | 121° |
| 2026-05-07 11:18 | 44.36166 | 43.06239 | 12656 ft | 362 kts | 126° |
| 2026-05-07 11:19 | 44.34665 | 43.09093 | 13441 ft | 366 kts | 126° |
| 2026-05-07 11:19 | 44.33177 | 43.12014 | 14147 ft | 371 kts | 124° |
| 2026-05-07 11:19 | 44.31733 | 43.15002 | 14903 ft | 371 kts | 123° |
| 2026-05-07 11:19 | 44.30316 | 43.18034 | 15571 ft | 376 kts | 122° |
| 2026-05-07 11:20 | 44.27698 | 43.23919 | 16828 ft | 382 kts | 116° |
| 2026-05-07 11:20 | 44.26691 | 43.27356 | 17510 ft | 384 kts | 108° |
| 2026-05-07 11:20 | 44.25880 | 43.30940 | 18138 ft | 388 kts | 106° |
| 2026-05-07 11:21 | 44.25121 | 43.34569 | 18744 ft | 391 kts | 106° |
| 2026-05-07 11:21 | 44.24350 | 43.38220 | 19355 ft | 393 kts | 106° |
| 2026-05-07 11:21 | 44.23551 | 43.41878 | 19959 ft | 395 kts | 107° |
| 2026-05-07 11:21 | 44.22734 | 43.45504 | 20486 ft | 398 kts | 107° |
| 2026-05-07 11:22 | 44.21883 | 43.49203 | 21035 ft | 401 kts | 107° |
| 2026-05-07 11:22 | 44.21020 | 43.52920 | 21594 ft | 404 kts | 107° |
| 2026-05-07 11:22 | 44.20146 | 43.56661 | 22151 ft | 406 kts | 107° |
| 2026-05-07 11:22 | 44.19272 | 43.60395 | 22883 ft | 403 kts | 107° |
| 2026-05-07 11:23 | 44.18405 | 43.64099 | 23673 ft | 400 kts | 107° |
| 2026-05-07 11:23 | 44.17556 | 43.67720 | 24277 ft | 397 kts | 107° |
| 2026-05-07 11:23 | 44.16714 | 43.71380 | 24864 ft | 395 kts | 104° |
| 2026-05-07 11:23 | 44.16109 | 43.75120 | 25073 ft | 395 kts | 99° |
| 2026-05-07 11:24 | 44.15686 | 43.78905 | 25085 ft | 394 kts | 97° |
| 2026-05-07 11:24 | 44.15321 | 43.82695 | 25089 ft | 393 kts | 97° |
| 2026-05-07 11:24 | 44.14959 | 43.86426 | 25099 ft | 394 kts | 97° |
| 2026-05-07 11:24 | 44.14571 | 43.90204 | 25095 ft | 394 kts | 97° |
| 2026-05-07 11:25 | 44.14163 | 43.93981 | 25096 ft | 395 kts | 98° |
| 2026-05-07 11:25 | 44.13738 | 43.97775 | 25101 ft | 395 kts | 98° |
| 2026-05-07 11:25 | 44.13306 | 44.01558 | 25100 ft | 395 kts | 98° |
| 2026-05-07 11:25 | 44.12875 | 44.05287 | 25093 ft | 391 kts | 98° |
| 2026-05-07 11:26 | 44.12447 | 44.08973 | 25081 ft | 379 kts | 98° |
| 2026-05-07 11:26 | 44.12028 | 44.12578 | 25088 ft | 375 kts | 98° |
| 2026-05-07 11:26 | 44.11613 | 44.16148 | 25088 ft | 371 kts | 98° |
| 2026-05-07 11:26 | 44.11201 | 44.19689 | 24969 ft | 370 kts | 98° |
| 2026-05-07 11:27 | 44.10795 | 44.23162 | 24722 ft | 365 kts | 98° |
| 2026-05-07 11:27 | 44.10386 | 44.26642 | 24390 ft | 364 kts | 99° |
| 2026-05-07 11:27 | 44.09978 | 44.30113 | 24026 ft | 362 kts | 99° |
| 2026-05-07 11:27 | 44.09571 | 44.33567 | 23654 ft | 360 kts | 99° |
| 2026-05-07 11:28 | 44.09165 | 44.36995 | 23227 ft | 358 kts | 99° |
| 2026-05-07 11:28 | 44.08760 | 44.40420 | 22812 ft | 356 kts | 99° |
| 2026-05-07 11:28 | 44.08358 | 44.43806 | 22430 ft | 354 kts | 99° |
| 2026-05-07 11:28 | 44.07963 | 44.47136 | 22057 ft | 352 kts | 99° |
| 2026-05-07 11:29 | 44.07563 | 44.50489 | 21688 ft | 349 kts | 99° |
| 2026-05-07 11:29 | 44.07165 | 44.53809 | 21324 ft | 347 kts | 99° |
| 2026-05-07 11:29 | 44.06724 | 44.57102 | 20959 ft | 345 kts | 105° |
| 2026-05-07 11:29 | 44.05916 | 44.60232 | 20583 ft | 343 kts | 116° |
| 2026-05-07 11:30 | 44.04830 | 44.63135 | 20224 ft | 342 kts | 118° |
| 2026-05-07 11:30 | 44.03692 | 44.66037 | 19847 ft | 341 kts | 119° |
| 2026-05-07 11:30 | 44.02549 | 44.68922 | 19485 ft | 339 kts | 119° |
| 2026-05-07 11:30 | 44.01413 | 44.71799 | 19134 ft | 338 kts | 118° |
| 2026-05-07 11:31 | 44.00283 | 44.74673 | 18779 ft | 337 kts | 118° |
| 2026-05-07 11:31 | 43.99161 | 44.77539 | 18423 ft | 337 kts | 118° |
| 2026-05-07 11:31 | 43.98059 | 44.80364 | 18032 ft | 336 kts | 118° |
| 2026-05-07 11:31 | 43.96947 | 44.83217 | 17645 ft | 335 kts | 118° |
| 2026-05-07 11:32 | 43.94736 | 44.88890 | 16919 ft | 331 kts | 118° |
| 2026-05-07 11:32 | 43.93641 | 44.91699 | 16576 ft | 330 kts | 118° |
| 2026-05-07 11:32 | 43.92550 | 44.94493 | 16217 ft | 328 kts | 118° |
| 2026-05-07 11:33 | 43.91465 | 44.97271 | 15879 ft | 327 kts | 118° |
| 2026-05-07 11:33 | 43.90396 | 45.00005 | 15531 ft | 326 kts | 119° |
| 2026-05-07 11:33 | 43.89316 | 45.02764 | 15193 ft | 325 kts | 119° |
| 2026-05-07 11:33 | 43.88240 | 45.05512 | 14847 ft | 324 kts | 119° |
| 2026-05-07 11:34 | 43.87164 | 45.08255 | 14512 ft | 323 kts | 119° |
| 2026-05-07 11:34 | 43.86091 | 45.10988 | 14170 ft | 322 kts | 119° |
| 2026-05-07 11:34 | 43.85018 | 45.13719 | 13819 ft | 322 kts | 119° |
| 2026-05-07 11:34 | 43.83946 | 45.16446 | 13433 ft | 322 kts | 119° |
| 2026-05-07 11:35 | 43.82887 | 45.19137 | 13072 ft | 320 kts | 119° |
| 2026-05-07 11:35 | 43.81818 | 45.21851 | 12716 ft | 319 kts | 119° |
| 2026-05-07 11:35 | 43.80753 | 45.24549 | 12374 ft | 318 kts | 119° |
| 2026-05-07 11:35 | 43.79692 | 45.27240 | 12022 ft | 317 kts | 119° |
| 2026-05-07 11:36 | 43.78633 | 45.29920 | 11685 ft | 316 kts | 119° |
| 2026-05-07 11:36 | 43.77580 | 45.32585 | 11348 ft | 315 kts | 119° |
| 2026-05-07 11:36 | 43.76525 | 45.35251 | 11006 ft | 314 kts | 119° |
| 2026-05-07 11:36 | 43.75492 | 45.37860 | 10795 ft | 309 kts | 119° |
| 2026-05-07 11:37 | 43.74470 | 45.40435 | 10660 ft | 302 kts | 119° |
| 2026-05-07 11:37 | 43.73466 | 45.42949 | 10452 ft | 297 kts | 121° |
| 2026-05-07 11:37 | 43.72386 | 45.45399 | 10114 ft | 298 kts | 123° |
| 2026-05-07 11:37 | 43.71268 | 45.47808 | 9801 ft | 297 kts | 124° |
| 2026-05-07 11:38 | 43.70143 | 45.50209 | 9479 ft | 297 kts | 124° |
| 2026-05-07 11:38 | 43.69017 | 45.52616 | 9165 ft | 297 kts | 123° |
| 2026-05-07 11:38 | 43.67899 | 45.55016 | 8859 ft | 296 kts | 123° |
| 2026-05-07 11:38 | 43.66800 | 45.57377 | 8496 ft | 295 kts | 123° |
| 2026-05-07 11:39 | 43.65699 | 45.59750 | 8235 ft | 292 kts | 122° |
| 2026-05-07 11:39 | 43.64599 | 45.62123 | 7960 ft | 291 kts | 123° |
| 2026-05-07 11:39 | 43.63875 | 45.63688 | 7764 ft | 291 kts | 123° |
| 2026-05-07 11:39 | 43.62414 | 45.66841 | 7331 ft | 292 kts | 123° |
| 2026-05-07 11:40 | 43.61331 | 45.69171 | 7031 ft | 291 kts | 123° |
| 2026-05-07 11:40 | 43.60237 | 45.71527 | 6735 ft | 291 kts | 122° |
| 2026-05-07 11:40 | 43.59143 | 45.73881 | 6431 ft | 291 kts | 123° |
| 2026-05-07 11:40 | 43.58051 | 45.76232 | 6108 ft | 291 kts | 123° |
| 2026-05-07 11:41 | 43.56960 | 45.78581 | 5810 ft | 290 kts | 123° |
| 2026-05-07 11:41 | 43.55868 | 45.80925 | 5510 ft | 289 kts | 123° |
| 2026-05-07 11:41 | 43.54783 | 45.83254 | 5232 ft | 288 kts | 123° |
| 2026-05-07 11:41 | 43.53713 | 45.85550 | 4956 ft | 288 kts | 123° |
| 2026-05-07 11:42 | 43.52628 | 45.87875 | 4678 ft | 288 kts | 123° |
| 2026-05-07 11:42 | 43.51541 | 45.90203 | 4362 ft | 288 kts | 123° |
| 2026-05-07 11:42 | 43.50384 | 45.92407 | 4199 ft | 280 kts | 138° |
| 2026-05-07 11:42 | 43.48768 | 45.93749 | 4075 ft | 266 kts | 164° |
| 2026-05-07 11:43 | 43.47010 | 45.94171 | 4031 ft | 254 kts | 180° |
| 2026-05-07 11:43 | 43.45246 | 45.94288 | 3874 ft | 253 kts | 181° |
| 2026-05-07 11:43 | 43.43500 | 45.94392 | 3789 ft | 247 kts | 181° |
| 2026-05-07 11:43 | 43.41785 | 45.94471 | 3548 ft | 244 kts | 189° |
| 2026-05-07 11:44 | 43.40306 | 45.93671 | 3272 ft | 225 kts | 228° |
| 2026-05-07 11:44 | 43.39649 | 45.91907 | 3145 ft | 208 kts | 266° |
| 2026-05-07 11:44 | 43.39670 | 45.89984 | 2927 ft | 198 kts | 270° |
| 2026-05-07 11:44 | 43.39595 | 45.88136 | 2752 ft | 190 kts | 267° |
| 2026-05-07 11:45 | 43.39508 | 45.86342 | 2521 ft | 185 kts | 267° |
| 2026-05-07 11:45 | 43.39433 | 45.84615 | 2268 ft | 175 kts | 269° |
| 2026-05-07 11:45 | 43.39368 | 45.83041 | 2096 ft | 161 kts | 268° |
| 2026-05-07 11:45 | 43.39306 | 45.81600 | 1910 ft | 143 kts | 268° |
| 2026-05-07 11:46 | 43.39248 | 45.80231 | 1745 ft | 144 kts | 268° |
| 2026-05-07 11:46 | 43.39185 | 45.78867 | 1556 ft | 144 kts | 269° |
| 2026-05-07 11:46 | 43.39130 | 45.77495 | 1401 ft | 143 kts | 269° |
| 2026-05-07 11:46 | 43.39074 | 45.76102 | 1167 ft | 149 kts | 269° |
| 2026-05-07 11:47 | 43.39014 | 45.74719 | 1038 ft | 144 kts | 268° |
| 2026-05-07 11:47 | 43.38953 | 45.73333 | 861 ft | 147 kts | 272° |
| 2026-05-07 11:47 | 43.38902 | 45.71915 | 630 ft | 150 kts | 268° |
| 2026-05-07 11:47 | 43.38842 | 45.70556 | 523 ft | 109 kts | 266° |
| 2026-05-07 11:48 | 43.38821 | 45.70053 | 522 ft | 8 kts | 266° |
| 2026-05-07 11:48 | 43.38789 | 45.69991 | 521 ft | 9 kts | 196° |
| 2026-05-07 11:48 | 43.38730 | 45.69992 | 522 ft | 8 kts | 176° |
| 2026-05-07 11:48 | 43.38690 | 45.69995 | 522 ft | 0 kts | 178° |
| 2026-05-07 11:49 | 43.38687 | 45.69995 | 522 ft | 2 kts | 175° |
| 2026-05-07 11:49 | 43.38665 | 45.70010 | 522 ft | 5 kts | 137° |
| 2026-05-07 11:49 | 43.38658 | 45.70061 | 522 ft | 6 kts | 87° |
| 2026-05-07 11:50 | 43.38653 | 45.70117 | 522 ft | 6 kts | 124° |
| 2026-05-07 11:50 | 43.38619 | 45.70102 | 522 ft | 6 kts | 252° |
| 2026-05-07 11:50 | 43.38616 | 45.70056 | 522 ft | 0 kts | 266° |
| 2026-05-07 11:51 | 43.38616 | 45.70057 | 522 ft | 0 kts | 266° |